Bridgewater, Massachusetts
Current Conditions -  °F | °C
As of 4:52 AM on Tuesday 21 Oct 2014 (Local Time) from KTAN Reporting Station
Broken Clouds Broken Clouds  
Wind Chill: 46°   Ceiling: 8000
Heat Index: 46°   Visibility: 9mi
Dew Point: 44°   Wind: 0mph
Humidity: 93%   Direction: NA
Pressure: 29.97"   Gusts: NA
Location:  41.99°N, 70.98°W
Report Text: KTAN 210852Z AUTO 00000KT 9SM BKN080 BKN090 08/07 A2997 RMK AO2 SLP150 60000 T00780067 56009
Loading
Personal Weather Stations






























Interactive Weather Map New forecast layout! Learn more

10-Day Weather Forecast

Advertisements
Track Severe Weather on mobile